Time;durP1;ratioP1;P1;durP2;ratioP2;P2;SDS_P1;SDS_P2;PMS_P1;PMS_P2;Temp;Humidity;BMP_temperature;BMP_pressure;BME280_temperature;BME280_humidity;BME280_pressure;Samples;Min_cycle;Max_cycle;Signal;HPM_P1;HPM_P2
2022/01/20 00:03:30;;;;;;;9.20;2.13;;;4.20;99.90;;;;;;5003272;28;20468;-80
2022/01/20 00:08:53;;;;;;;10.93;2.22;;;4.30;99.90;;;;;;5002958;28;20471;-80
2022/01/20 00:28:02;;;;;;;13.23;2.00;;;4.50;99.90;;;;;;5000751;28;20361;-80
2022/01/20 00:30:36;;;;;;;16.15;2.72;;;4.50;99.90;;;;;;5001655;28;20384;-80
2022/01/20 00:33:17;;;;;;;6.55;1.77;;;4.30;99.90;;;;;;4983903;28;20068;-80
2022/01/20 00:38:24;;;;;;;13.48;2.35;;;4.20;99.90;;;;;;5001279;28;20338;-80
2022/01/20 00:40:51;;;;;;;8.77;2.05;;;4.10;99.90;;;;;;4983524;28;20159;-80
2022/01/20 00:43:17;;;;;;;12.88;2.28;;;4.10;99.90;;;;;;5011901;28;20529;-80
2022/01/20 00:45:43;;;;;;;11.73;1.88;;;4.10;99.90;;;;;;4978746;28;20099;-80
2022/01/20 00:48:09;;;;;;;14.93;2.00;;;4.10;99.90;;;;;;4998405;28;20042;-80
2022/01/20 00:50:35;;;;;;;14.77;2.45;;;4.10;99.90;;;;;;5000839;28;20038;-80
2022/01/20 00:53:02;;;;;;;12.00;2.42;;;4.00;99.90;;;;;;4989930;28;20092;-80
2022/01/20 00:55:28;;;;;;;14.77;2.53;;;4.10;99.90;;;;;;4997025;28;20506;-80
2022/01/20 00:57:54;;;;;;;13.65;2.25;;;4.10;99.90;;;;;;4995674;28;20147;-81
2022/01/20 01:00:19;;;;;;;12.48;2.95;;;4.10;99.90;;;;;;4994354;28;20100;-80
2022/01/20 01:02:45;;;;;;;13.18;2.20;;;4.10;99.90;;;;;;4996294;28;20057;-80
2022/01/20 01:05:12;;;;;;;13.85;2.08;;;4.10;99.90;;;;;;4994748;28;20033;-80
2022/01/20 01:07:47;;;;;;;15.25;2.67;;;4.10;99.90;;;;;;4989891;28;20041;-80
2022/01/20 01:10:16;;;;;;;14.38;2.20;;;4.10;99.90;;;;;;4999206;28;20072;-80
2022/01/20 01:15:56;;;;;;;6.80;1.73;;;4.20;99.90;;;;;;4990829;28;20041;-80
2022/01/20 01:23:12;;;;;;;14.52;2.22;;;4.30;99.90;;;;;;4990752;28;20049;-80
2022/01/20 01:25:38;;;;;;;14.52;2.53;;;4.30;99.90;;;;;;5001032;28;20045;-80
2022/01/20 01:28:04;;;;;;;8.10;1.98;;;4.40;99.90;;;;;;5015556;28;20495;-80
2022/01/20 01:33:08;;;;;;;5.60;1.17;;;4.70;99.90;;;;;;4993899;28;20049;-80
2022/01/20 01:35:38;;;;;;;6.63;1.30;;;4.60;99.90;;;;;;4995057;28;20044;-80
2022/01/20 01:40:31;;;;;;;5.70;1.20;;;4.50;99.90;;;;;;4995653;28;20050;-80
2022/01/20 01:42:57;;;;;;;6.20;1.20;;;4.50;99.90;;;;;;4993801;28;20049;-80
2022/01/20 01:45:32;;;;;;;10.40;1.52;;;4.50;99.90;;;;;;4988871;28;20199;-80
2022/01/20 01:48:00;;;;;;;5.00;1.15;;;4.40;99.90;;;;;;4995961;28;20289;-80
2022/01/20 01:50:26;;;;;;;6.57;1.15;;;4.40;99.90;;;;;;4984479;28;20045;-80
2022/01/20 01:52:54;;;;;;;6.32;0.98;;;4.40;99.90;;;;;;4990779;28;20048;-80
2022/01/20 01:55:21;;;;;;;7.05;1.40;;;4.40;99.90;;;;;;4997291;28;20371;-80
2022/01/20 01:57:47;;;;;;;7.47;1.48;;;4.40;99.90;;;;;;5013020;28;20224;-80
2022/01/20 02:00:15;;;;;;;7.80;1.65;;;4.40;99.90;;;;;;4994852;28;20049;-80
2022/01/20 02:02:44;;;;;;;10.50;1.77;;;4.50;99.90;;;;;;4993733;28;20217;-80
2022/01/20 02:05:13;;;;;;;7.32;1.38;;;4.40;99.90;;;;;;4983781;28;20052;-80
2022/01/20 02:18:48;;;;;;;9.45;1.55;;;4.30;99.90;;;;;;4995807;28;20045;-80
2022/01/20 02:21:14;;;;;;;11.43;2.13;;;4.40;99.90;;;;;;4978995;28;20445;-80
2022/01/20 02:23:40;;;;;;;15.88;2.08;;;4.40;99.90;;;;;;4974998;28;20033;-80
2022/01/20 02:26:06;;;;;;;17.95;2.17;;;4.40;99.90;;;;;;4996374;28;20085;-80
2022/01/20 02:28:31;;;;;;;11.65;2.20;;;4.40;99.90;;;;;;4991106;28;20390;-80
2022/01/20 02:30:58;;;;;;;8.35;1.88;;;4.40;99.90;;;;;;4993436;28;20045;-80
2022/01/20 02:33:27;;;;;;;10.02;1.80;;;4.20;99.90;;;;;;4984163;28;20110;-81
2022/01/20 02:36:04;;;;;;;12.57;1.60;;;3.70;99.90;;;;;;4980811;28;20385;-80
2022/01/20 02:38:53;;;;;;;15.55;2.53;;;3.70;99.90;;;;;;4986711;28;20045;-80
2022/01/20 02:46:47;;;;;;;11.15;2.38;;;3.70;99.90;;;;;;5009901;28;20116;-80
2022/01/20 02:49:16;;;;;;;15.82;3.25;;;3.70;99.90;;;;;;4971462;28;20041;-80
2022/01/20 02:51:50;;;;;;;17.15;2.90;;;3.70;99.90;;;;;;4977721;28;20130;-80
2022/01/20 02:54:17;;;;;;;10.90;2.67;;;3.80;99.90;;;;;;5012967;28;20064;-80
2022/01/20 02:56:44;;;;;;;13.85;2.30;;;3.70;99.90;;;;;;4992402;28;20436;-80
2022/01/20 02:59:09;;;;;;;12.73;2.53;;;3.80;99.90;;;;;;4999403;28;20073;-80
2022/01/20 03:01:35;;;;;;;13.57;2.78;;;3.80;99.90;;;;;;4997783;28;20434;-80
2022/01/20 03:04:03;;;;;;;13.73;3.30;;;3.90;99.90;;;;;;4998811;28;20045;-80
2022/01/20 03:06:29;;;;;;;15.73;2.70;;;3.90;99.90;;;;;;4996922;28;20429;-80
2022/01/20 03:08:54;;;;;;;16.92;3.58;;;4.00;99.90;;;;;;4980270;28;20049;-80
2022/01/20 03:11:20;;;;;;;18.42;3.55;;;4.00;99.90;;;;;;5016624;28;20128;-80
2022/01/20 03:13:46;;;;;;;25.02;3.80;;;4.10;99.90;;;;;;5002247;28;20128;-80
2022/01/20 03:16:11;;;;;;;16.27;3.15;;;4.20;99.90;;;;;;5021512;28;20064;-80
2022/01/20 03:18:37;;;;;;;14.82;3.17;;;4.30;99.90;;;;;;5003465;28;20053;-80
2022/01/20 03:21:03;;;;;;;16.45;3.33;;;4.20;99.90;;;;;;5004071;28;20585;-80
2022/01/20 03:23:29;;;;;;;21.90;4.15;;;4.30;99.90;;;;;;4988534;28;20544;-80
2022/01/20 03:25:55;;;;;;;14.40;3.17;;;4.20;99.90;;;;;;5005764;28;20049;-80
2022/01/20 03:28:20;;;;;;;21.02;4.07;;;4.20;99.90;;;;;;5003668;28;20099;-80
2022/01/20 03:30:46;;;;;;;18.55;3.75;;;4.20;99.90;;;;;;5001437;28;20453;-80
2022/01/20 03:33:12;;;;;;;20.05;4.30;;;4.30;99.90;;;;;;5008022;28;20844;-80
2022/01/20 03:35:41;;;;;;;21.27;3.60;;;4.20;99.90;;;;;;5004624;28;20025;-80
2022/01/20 03:38:07;;;;;;;20.15;3.50;;;4.20;99.90;;;;;;4984734;28;20132;-80
2022/01/20 03:40:33;;;;;;;14.95;3.33;;;4.10;99.90;;;;;;5001757;28;20433;-80
2022/01/20 03:42:59;;;;;;;17.52;3.95;;;4.00;99.90;;;;;;5021024;28;20068;-80
2022/01/20 03:45:26;;;;;;;17.67;3.65;;;4.00;99.90;;;;;;4985953;28;20056;-80
2022/01/20 03:47:58;;;;;;;20.85;3.72;;;4.00;99.90;;;;;;5017704;28;20481;-80
2022/01/20 03:53:08;;;;;;;12.32;3.20;;;4.10;99.90;;;;;;5019679;28;20060;-80
2022/01/20 03:55:34;;;;;;;17.55;2.92;;;4.20;99.90;;;;;;4983613;28;20049;-80
2022/01/20 03:58:00;;;;;;;15.90;3.50;;;4.20;99.90;;;;;;5004757;28;20580;-80
2022/01/20 04:00:25;;;;;;;8.85;2.28;;;4.30;99.90;;;;;;5001442;28;20033;-80
2022/01/20 04:02:51;;;;;;;14.63;3.08;;;4.10;99.90;;;;;;5005068;28;20361;-80
2022/01/20 04:05:17;;;;;;;11.95;2.63;;;4.00;99.90;;;;;;5002759;28;20049;-80
2022/01/20 04:07:42;;;;;;;12.20;2.38;;;4.00;99.90;;;;;;5002079;28;20171;-80
2022/01/20 04:10:08;;;;;;;10.13;2.70;;;4.00;99.90;;;;;;4989368;28;20269;-80
2022/01/20 04:12:34;;;;;;;8.43;1.88;;;3.90;99.90;;;;;;5002743;28;20506;-80
2022/01/20 04:15:06;;;;;;;10.52;1.98;;;4.00;99.90;;;;;;5003146;28;20037;-80
2022/01/20 04:17:34;;;;;;;7.82;2.20;;;3.90;99.90;;;;;;5019675;28;20091;-80
2022/01/20 04:20:00;;;;;;;11.75;2.47;;;4.10;99.90;;;;;;5019021;28;20187;-80
2022/01/20 04:22:27;;;;;;;5.97;1.92;;;3.90;99.90;;;;;;4985101;28;20033;-80
2022/01/20 04:24:53;;;;;;;11.55;2.50;;;3.80;99.90;;;;;;4982111;28;20077;-79
2022/01/20 04:27:19;;;;;;;9.48;2.20;;;3.80;99.90;;;;;;5004388;28;20512;-80
2022/01/20 04:29:44;;;;;;;6.82;1.88;;;3.80;99.90;;;;;;5001552;28;20361;-80
2022/01/20 04:32:10;;;;;;;7.45;1.70;;;3.90;99.90;;;;;;5003249;28;20103;-80
2022/01/20 04:34:36;;;;;;;7.78;1.80;;;3.80;99.90;;;;;;5002228;28;20077;-80
2022/01/20 04:37:04;;;;;;;9.40;2.25;;;3.90;99.90;;;;;;5002284;28;20511;-80
2022/01/20 04:39:32;;;;;;;9.90;1.83;;;3.80;99.90;;;;;;5003186;28;20122;-80
2022/01/20 04:41:58;;;;;;;9.45;2.17;;;3.80;99.90;;;;;;5002329;28;20034;-80
2022/01/20 04:45:09;;;;;;;12.07;2.28;;;3.80;99.90;;;;;;4997334;28;20042;-80
2022/01/20 04:47:32;;;;;;;11.50;2.60;;;3.80;99.90;;;;;;5015020;28;20048;-80
2022/01/20 04:58:11;;;;;;;12.77;2.75;;;3.50;99.90;;;;;;4998967;28;20045;-80
2022/01/20 05:00:37;;;;;;;16.15;3.05;;;3.60;99.90;;;;;;5016353;28;20049;-80
2022/01/20 05:03:04;;;;;;;10.77;3.08;;;3.60;99.90;;;;;;5000888;28;20485;-80
2022/01/20 05:05:32;;;;;;;13.30;2.67;;;3.60;99.90;;;;;;5001434;28;20049;-80
2022/01/20 05:07:58;;;;;;;11.38;2.22;;;3.60;99.90;;;;;;4997090;28;20107;-80
2022/01/20 05:10:24;;;;;;;10.07;2.35;;;3.50;99.90;;;;;;5002165;28;20768;-80
2022/01/20 05:15:19;;;;;;;15.60;2.63;;;3.50;99.90;;;;;;4999173;28;20050;-80
2022/01/20 05:17:47;;;;;;;3.78;1.58;;;3.40;99.90;;;;;;4985597;28;20253;-80
2022/01/20 05:20:13;;;;;;;8.20;1.65;;;3.20;99.90;;;;;;5013724;28;20123;-80
2022/01/20 05:22:39;;;;;;;7.95;1.63;;;3.00;99.90;;;;;;4998915;28;20042;-80
2022/01/20 05:25:06;;;;;;;9.02;1.80;;;2.90;99.90;;;;;;5014756;28;20057;-80
2022/01/20 05:27:32;;;;;;;6.50;1.20;;;2.90;99.90;;;;;;4984082;28;20041;-80
2022/01/20 05:29:58;;;;;;;5.40;0.90;;;3.00;99.90;;;;;;4998785;28;20034;-80
2022/01/20 05:32:24;;;;;;;4.57;1.13;;;3.00;99.90;;;;;;4981300;28;20038;-80
2022/01/20 05:34:50;;;;;;;6.75;1.50;;;3.00;99.90;;;;;;4978156;28;20042;-80
2022/01/20 05:37:16;;;;;;;5.82;1.13;;;2.90;99.90;;;;;;4983196;28;20041;-79
2022/01/20 05:39:42;;;;;;;5.60;1.42;;;2.80;99.90;;;;;;4981895;28;20112;-80
2022/01/20 05:42:09;;;;;;;10.25;2.15;;;2.90;99.90;;;;;;5000521;28;20048;-80
2022/01/20 05:44:35;;;;;;;8.18;2.45;;;2.80;99.90;;;;;;4993343;28;20484;-80
2022/01/20 05:47:06;;;;;;;10.55;1.92;;;2.70;99.90;;;;;;4994180;28;20057;-80
2022/01/20 05:49:35;;;;;;;7.05;1.83;;;2.70;99.90;;;;;;4999738;28;20791;-79
2022/01/20 05:52:01;;;;;;;8.88;2.60;;;2.70;99.90;;;;;;4980439;28;20029;-79
2022/01/20 05:54:27;;;;;;;11.52;2.15;;;2.60;99.90;;;;;;4995169;28;20037;-79
2022/01/20 05:56:53;;;;;;;9.13;2.60;;;2.60;99.90;;;;;;4989389;28;20034;-80
2022/01/20 05:59:19;;;;;;;12.70;2.25;;;2.50;99.90;;;;;;4994337;28;20285;-80
2022/01/20 06:01:52;;;;;;;11.23;2.65;;;2.50;99.90;;;;;;4975443;28;20394;-80
2022/01/20 06:04:17;;;;;;;11.05;2.75;;;2.60;99.90;;;;;;4976079;28;20041;-80
2022/01/20 06:06:44;;;;;;;10.98;2.53;;;2.80;99.90;;;;;;4992837;28;20045;-80
2022/01/20 06:09:10;;;;;;;17.52;2.92;;;2.90;99.90;;;;;;4978519;28;20046;-80
2022/01/20 06:11:36;;;;;;;15.68;3.20;;;2.90;99.90;;;;;;4991752;28;20044;-80
2022/01/20 06:14:04;;;;;;;16.23;2.72;;;3.00;99.90;;;;;;4991389;28;20108;-80
2022/01/20 06:16:30;;;;;;;10.30;2.63;;;3.20;99.90;;;;;;5012406;28;20038;-80
2022/01/20 06:18:56;;;;;;;10.65;2.75;;;3.20;99.90;;;;;;4992927;28;20390;-80
2022/01/20 06:21:22;;;;;;;19.83;3.33;;;3.30;99.90;;;;;;4991836;28;20045;-79
2022/01/20 06:23:49;;;;;;;12.02;3.30;;;3.30;99.90;;;;;;4995656;28;20045;-80
2022/01/20 06:26:14;;;;;;;14.15;3.00;;;3.30;99.90;;;;;;5016321;28;20319;-80
2022/01/20 06:28:40;;;;;;;13.00;2.58;;;3.30;99.90;;;;;;4977588;28;20123;-80
2022/01/20 06:31:06;;;;;;;15.60;3.20;;;3.20;99.90;;;;;;4991456;28;20092;-80
2022/01/20 06:33:32;;;;;;;12.77;2.40;;;3.30;99.90;;;;;;4992641;28;20060;-80
2022/01/20 06:35:58;;;;;;;10.43;2.40;;;3.30;99.90;;;;;;4973113;28;20551;-80
2022/01/20 06:38:25;;;;;;;12.30;2.20;;;3.30;99.90;;;;;;4981675;28;20056;-80
2022/01/20 06:40:50;;;;;;;15.63;3.08;;;3.30;99.90;;;;;;4991404;28;20112;-80
2022/01/20 06:43:16;;;;;;;10.52;2.25;;;3.30;99.90;;;;;;4974748;28;20058;-80
2022/01/20 06:45:42;;;;;;;10.88;2.28;;;3.40;99.90;;;;;;4999187;28;20541;-80
2022/01/20 06:48:08;;;;;;;9.75;2.55;;;2.70;99.90;;;;;;5001569;28;20050;-80
2022/01/20 06:50:34;;;;;;;8.57;3.08;;;2.50;99.90;;;;;;5003056;28;20037;-80
2022/01/20 06:53:00;;;;;;;14.02;2.72;;;2.50;99.90;;;;;;4997416;28;20476;-80
2022/01/20 06:55:26;;;;;;;14.00;2.50;;;2.50;99.90;;;;;;4991582;28;20848;-80
2022/01/20 06:57:51;;;;;;;9.38;2.20;;;2.40;99.90;;;;;;4998804;28;20034;-79
2022/01/20 07:00:20;;;;;;;9.27;2.47;;;2.40;99.90;;;;;;5005534;28;20034;-80
2022/01/20 07:02:47;;;;;;;11.10;2.17;;;2.40;99.90;;;;;;4999002;28;20067;-79
2022/01/20 07:05:16;;;;;;;14.18;2.28;;;2.40;99.90;;;;;;4998901;28;20520;-80
2022/01/20 07:07:42;;;;;;;13.80;2.22;;;2.40;99.90;;;;;;4993475;28;20055;-80
2022/01/20 07:10:09;;;;;;;8.20;2.10;;;2.50;99.90;;;;;;5002893;28;20049;-79
2022/01/20 07:12:35;;;;;;;10.77;3.17;;;2.50;99.90;;;;;;5018224;28;20044;-80
2022/01/20 07:15:01;;;;;;;11.27;2.05;;;2.50;99.90;;;;;;4997079;28;20059;-79
2022/01/20 07:17:27;;;;;;;13.02;2.38;;;2.50;99.90;;;;;;5000550;28;20088;-79
2022/01/20 07:19:53;;;;;;;8.13;1.98;;;2.50;99.90;;;;;;4992962;28;20127;-79
2022/01/20 07:22:22;;;;;;;11.95;2.47;;;2.60;99.90;;;;;;4996371;28;20045;-79
2022/01/20 07:24:48;;;;;;;10.30;2.15;;;2.60;99.90;;;;;;4976407;28;20072;-79
2022/01/20 07:27:15;;;;;;;13.40;2.22;;;2.80;99.90;;;;;;4996492;28;20034;-79
2022/01/20 07:29:40;;;;;;;12.23;2.10;;;2.80;99.90;;;;;;4985220;28;20113;-79
2022/01/20 07:32:07;;;;;;;13.38;2.28;;;2.80;99.90;;;;;;4997165;28;20164;-79
2022/01/20 07:34:33;;;;;;;15.13;2.90;;;2.70;99.90;;;;;;4994821;28;20130;-79
2022/01/20 07:37:00;;;;;;;8.77;1.92;;;2.70;99.90;;;;;;4997228;28;20168;-79
2022/01/20 07:39:26;;;;;;;15.60;2.63;;;2.80;99.90;;;;;;4981446;28;20050;-79
2022/01/20 07:41:52;;;;;;;11.90;2.30;;;2.80;99.90;;;;;;4995767;28;20393;-80
2022/01/20 07:44:17;;;;;;;10.88;2.42;;;2.70;99.90;;;;;;4983931;28;20060;-79
2022/01/20 07:46:47;;;;;;;11.18;2.65;;;2.60;99.90;;;;;;5021366;28;20042;-79
2022/01/20 07:49:13;;;;;;;10.80;2.55;;;2.60;99.90;;;;;;5016017;28;20405;-80
2022/01/20 07:51:39;;;;;;;9.30;2.20;;;2.60;99.90;;;;;;5004177;28;20462;-79
2022/01/20 07:54:05;;;;;;;11.63;2.85;;;2.50;99.90;;;;;;4995838;28;20065;-80
2022/01/20 07:56:31;;;;;;;17.23;3.17;;;2.60;99.90;;;;;;4998356;28;20466;-80
2022/01/20 07:58:56;;;;;;;12.55;2.35;;;2.70;99.90;;;;;;5020979;28;20038;-80
2022/01/20 08:01:24;;;;;;;11.40;2.35;;;2.70;99.90;;;;;;4977990;28;20559;-80
2022/01/20 08:03:52;;;;;;;11.45;2.50;;;2.70;99.90;;;;;;4999183;28;20049;-80
2022/01/20 08:06:19;;;;;;;16.85;3.25;;;2.80;99.90;;;;;;5004270;28;20545;-79
2022/01/20 08:08:46;;;;;;;16.02;3.38;;;2.90;99.90;;;;;;5000177;28;20076;-79
2022/01/20 08:11:12;;;;;;;16.05;3.80;;;2.90;99.90;;;;;;5000702;28;20082;-79
2022/01/20 08:13:37;;;;;;;12.50;2.55;;;2.90;99.90;;;;;;4997795;28;20350;-80
2022/01/20 08:16:03;;;;;;;13.15;3.22;;;3.00;99.90;;;;;;4982464;28;20370;-79
2022/01/20 08:18:29;;;;;;;18.80;2.92;;;3.00;99.90;;;;;;4985195;28;20453;-79
2022/01/20 08:20:54;;;;;;;11.85;2.90;;;2.90;99.90;;;;;;5012916;28;20053;-80
2022/01/20 08:23:20;;;;;;;15.77;2.90;;;2.90;99.90;;;;;;5000278;28;20053;-79
2022/01/20 08:25:46;;;;;;;18.25;2.92;;;2.90;99.90;;;;;;5000119;28;20414;-79
2022/01/20 08:28:12;;;;;;;17.55;3.50;;;2.80;99.90;;;;;;4997887;28;20081;-79
2022/01/20 08:30:38;;;;;;;9.98;2.60;;;2.90;99.90;;;;;;4997436;28;20045;-79
2022/01/20 08:33:04;;;;;;;13.52;2.53;;;3.10;99.90;;;;;;4994823;28;20045;-80
2022/01/20 08:35:32;;;;;;;12.60;2.85;;;3.00;99.90;;;;;;4985560;28;20045;-79
2022/01/20 08:37:59;;;;;;;10.10;2.28;;;3.20;99.90;;;;;;5016009;28;20041;-80
2022/01/20 08:40:26;;;;;;;9.93;2.58;;;3.40;99.90;;;;;;5000520;28;20487;-80
2022/01/20 08:42:53;;;;;;;8.25;2.47;;;3.50;99.90;;;;;;4999042;28;20091;-79
2022/01/20 08:45:22;;;;;;;11.63;2.10;;;3.50;99.90;;;;;;4982992;28;20056;-80
2022/01/20 08:47:52;;;;;;;13.52;2.08;;;3.50;99.90;;;;;;4999496;28;20042;-80
2022/01/20 08:50:18;;;;;;;13.52;2.65;;;3.60;99.90;;;;;;5002521;28;20048;-80
2022/01/20 08:52:44;;;;;;;9.65;2.30;;;3.60;99.90;;;;;;4982329;28;20091;-80
2022/01/20 08:55:09;;;;;;;12.30;2.53;;;3.80;99.90;;;;;;5000830;28;20456;-80
2022/01/20 08:57:35;;;;;;;14.15;2.35;;;4.00;99.90;;;;;;5012211;28;20092;-80
2022/01/20 09:00:03;;;;;;;14.07;2.58;;;3.60;99.90;;;;;;4996561;28;20453;-80
2022/01/20 09:02:30;;;;;;;10.55;2.30;;;3.00;99.90;;;;;;4984006;28;20053;-80
2022/01/20 09:04:56;;;;;;;11.45;1.92;;;3.00;99.90;;;;;;4983034;28;20053;-80
2022/01/20 09:07:21;;;;;;;7.93;1.77;;;2.80;99.90;;;;;;4998155;28;20073;-80
2022/01/20 09:09:48;;;;;;;4.00;1.52;;;2.70;99.90;;;;;;4981724;28;20041;-79
2022/01/20 09:17:31;;;;;;;6.50;1.70;;;2.90;99.90;;;;;;4999249;28;20061;-80
2022/01/20 09:19:58;;;;;;;3.60;1.30;;;3.00;99.90;;;;;;4998083;28;20100;-79
2022/01/20 09:22:25;;;;;;;9.80;1.45;;;3.20;99.90;;;;;;4983992;28;20480;-80
2022/01/20 09:24:51;;;;;;;5.55;1.38;;;3.40;99.90;;;;;;5020782;28;20078;-80
2022/01/20 09:27:19;;;;;;;6.70;1.90;;;3.40;99.90;;;;;;4983855;28;20092;-79
2022/01/20 09:29:45;;;;;;;8.93;1.88;;;3.30;99.90;;;;;;4996683;28;20082;-79
2022/01/20 09:32:12;;;;;;;9.82;1.77;;;3.20;99.90;;;;;;4998418;28;20121;-79
2022/01/20 09:34:42;;;;;;;11.15;2.72;;;3.20;99.90;;;;;;4999343;28;20037;-79
2022/01/20 09:37:08;;;;;;;11.13;2.08;;;3.20;99.90;;;;;;4974088;28;20096;-80
2022/01/20 09:39:34;;;;;;;7.72;1.60;;;3.10;99.90;;;;;;4998853;28;20460;-80
2022/01/20 09:41:59;;;;;;;14.65;3.25;;;3.10;99.90;;;;;;4997554;28;20041;-79
2022/01/20 09:44:26;;;;;;;7.25;2.38;;;3.10;99.90;;;;;;5013734;28;20057;-79
2022/01/20 09:46:52;;;;;;;14.85;2.42;;;3.10;99.90;;;;;;4998254;28;20086;-80
2022/01/20 09:49:18;;;;;;;12.23;2.10;;;3.20;99.90;;;;;;4997041;28;20054;-79
2022/01/20 09:51:44;;;;;;;10.77;2.08;;;3.10;99.90;;;;;;4996066;28;20041;-80
2022/01/20 09:54:10;;;;;;;12.88;2.33;;;3.10;99.90;;;;;;4998471;28;20449;-79
2022/01/20 09:56:37;;;;;;;13.95;2.35;;;3.20;99.90;;;;;;5013985;28;20097;-79
2022/01/20 09:59:04;;;;;;;10.77;2.40;;;3.50;99.90;;;;;;5015458;28;20041;-79
2022/01/20 10:01:43;;;;;;;13.90;2.67;;;3.70;99.90;;;;;;4982618;28;20049;-79
2022/01/20 10:04:38;;;;;;;8.75;1.95;;;3.80;99.90;;;;;;4997240;28;20056;-79
2022/01/20 10:07:09;;;;;;;14.73;3.55;;;3.70;99.90;;;;;;4986168;28;20058;-80
2022/01/20 10:09:42;;;;;;;10.95;2.70;;;3.80;99.90;;;;;;5015430;28;20601;-79
2022/01/20 10:12:10;;;;;;;11.68;2.90;;;4.00;99.90;;;;;;4971550;28;20038;-79
2022/01/20 10:14:46;;;;;;;9.27;2.30;;;4.20;99.90;;;;;;4978793;28;20045;-80
2022/01/20 10:17:21;;;;;;;11.63;2.65;;;4.30;99.90;;;;;;4982026;28;20046;-80
2022/01/20 10:19:51;;;;;;;10.00;2.17;;;4.30;99.90;;;;;;4996870;28;20143;-80
2022/01/20 10:22:22;;;;;;;8.07;1.70;;;4.30;99.90;;;;;;4983724;28;20029;-80
2022/01/20 10:25:05;;;;;;;12.55;2.25;;;4.30;99.90;;;;;;5003188;28;20113;-80
2022/01/20 10:27:33;;;;;;;8.75;1.85;;;4.10;99.90;;;;;;4983976;28;20046;-79
2022/01/20 10:30:08;;;;;;;7.35;1.70;;;4.00;99.90;;;;;;5000499;28;20052;-80
2022/01/20 10:32:43;;;;;;;9.70;2.03;;;4.10;99.90;;;;;;5002390;28;20037;-80
2022/01/20 10:35:12;;;;;;;8.48;1.73;;;4.00;99.90;;;;;;4999718;28;20053;-79
2022/01/20 10:37:39;;;;;;;11.40;2.55;;;3.90;99.90;;;;;;4998508;28;20041;-80
2022/01/20 10:40:11;;;;;;;5.50;1.60;;;4.00;99.90;;;;;;5002485;28;20081;-80
2022/01/20 10:42:43;;;;;;;10.25;2.05;;;4.20;99.90;;;;;;5001366;28;20057;-80
2022/01/20 10:45:26;;;;;;;6.60;1.60;;;4.10;99.90;;;;;;4994602;28;20053;-80
2022/01/20 10:47:58;;;;;;;9.55;1.77;;;4.10;99.90;;;;;;4984576;28;20061;-79
2022/01/20 10:50:36;;;;;;;7.93;1.85;;;4.00;99.90;;;;;;4998539;28;20386;-79
2022/01/20 10:53:02;;;;;;;14.07;2.20;;;4.00;99.90;;;;;;4999067;28;20034;-80
2022/01/20 10:55:31;;;;;;;8.60;2.17;;;3.90;99.90;;;;;;4987364;28;20450;-79
2022/01/20 10:58:15;;;;;;;8.38;2.30;;;4.00;99.90;;;;;;5002107;28;20042;-80
2022/01/20 11:00:47;;;;;;;9.23;2.00;;;4.10;99.90;;;;;;4999476;28;20657;-80
2022/01/20 11:03:14;;;;;;;7.60;1.85;;;4.30;99.90;;;;;;4979935;28;20292;-79
2022/01/20 11:05:41;;;;;;;10.25;1.98;;;4.40;99.90;;;;;;4989355;28;20048;-80
2022/01/20 11:08:08;;;;;;;7.78;1.63;;;4.50;99.90;;;;;;5004490;28;20056;-79
2022/01/20 11:10:34;;;;;;;9.93;1.83;;;4.50;99.90;;;;;;5002007;28;20085;-80
2022/01/20 11:13:02;;;;;;;9.73;2.00;;;4.70;99.90;;;;;;5001049;28;20034;-80
2022/01/20 11:15:29;;;;;;;11.82;2.20;;;4.80;99.90;;;;;;5014564;28;20048;-80
2022/01/20 11:17:56;;;;;;;7.50;1.90;;;4.70;99.90;;;;;;4987441;28;20540;-80
2022/01/20 11:20:26;;;;;;;10.40;3.28;;;4.60;99.90;;;;;;5001428;28;20513;-80
2022/01/20 11:23:12;;;;;;;12.13;2.70;;;4.10;99.90;;;;;;4984469;28;20077;-79
2022/01/20 11:25:41;;;;;;;13.05;2.35;;;3.50;99.90;;;;;;5018011;28;20037;-80
2022/01/20 11:28:20;;;;;;;11.00;1.88;;;3.40;99.90;;;;;;4995686;28;20120;-79
2022/01/20 11:30:59;;;;;;;10.18;1.98;;;3.40;99.90;;;;;;4974946;28;20073;-80
2022/01/20 11:33:43;;;;;;;11.02;2.33;;;3.50;99.90;;;;;;5000405;28;20862;-80
2022/01/20 11:36:31;;;;;;;9.88;2.25;;;3.60;99.90;;;;;;4997379;28;20033;-80
2022/01/20 11:39:04;;;;;;;11.48;1.90;;;3.80;99.90;;;;;;4997837;28;20106;-80
2022/01/20 11:41:49;;;;;;;12.70;2.20;;;4.10;99.90;;;;;;4984112;28;20293;-79
2022/01/20 11:44:23;;;;;;;13.57;2.67;;;4.10;99.90;;;;;;5014687;28;20077;-79
2022/01/20 11:46:51;;;;;;;12.00;2.10;;;4.10;99.90;;;;;;5000397;28;20045;-80
2022/01/20 11:49:19;;;;;;;12.05;1.90;;;3.80;99.90;;;;;;5000367;28;20063;-80
2022/01/20 11:51:58;;;;;;;7.60;1.98;;;3.20;99.90;;;;;;4996950;28;20068;-80
2022/01/20 11:54:41;;;;;;;9.65;1.92;;;2.90;99.90;;;;;;4999593;28;20053;-80
2022/01/20 11:57:27;;;;;;;10.25;2.10;;;2.90;99.90;;;;;;5001168;28;20838;-79
2022/01/20 12:00:00;;;;;;;6.10;1.50;;;2.90;99.90;;;;;;4995788;28;20485;-80
2022/01/20 12:02:37;;;;;;;11.40;2.13;;;2.80;99.90;;;;;;5011011;28;20066;-80
2022/01/20 12:05:15;;;;;;;8.55;1.75;;;3.00;99.90;;;;;;4999756;28;20520;-79
2022/01/20 12:07:41;;;;;;;7.45;1.75;;;3.20;99.90;;;;;;4995973;28;20125;-80
2022/01/20 12:10:11;;;;;;;10.70;2.10;;;3.40;99.90;;;;;;5000029;28;20128;-80
2022/01/20 12:12:40;;;;;;;9.07;1.98;;;3.60;99.90;;;;;;5016870;28;22059;-80
2022/01/20 12:15:16;;;;;;;11.60;2.50;;;3.80;99.90;;;;;;5001741;28;20093;-80
2022/01/20 12:17:53;;;;;;;18.75;2.40;;;4.20;99.90;;;;;;5001427;28;20128;-80
2022/01/20 12:20:20;;;;;;;8.45;1.98;;;4.30;99.90;;;;;;4994734;28;20084;-80
2022/01/20 12:22:47;;;;;;;12.70;2.72;;;4.20;99.90;;;;;;4998490;28;20510;-80
2022/01/20 12:25:19;;;;;;;8.43;2.28;;;4.20;99.90;;;;;;4982004;28;20037;-80
2022/01/20 12:27:46;;;;;;;11.27;3.22;;;4.20;99.90;;;;;;4982343;28;20099;-80
2022/01/20 12:30:24;;;;;;;13.10;2.72;;;4.20;99.90;;;;;;5014532;28;20038;-80
2022/01/20 12:33:17;;;;;;;15.55;3.38;;;4.30;99.90;;;;;;4998612;28;20038;-80
2022/01/20 12:35:52;;;;;;;10.65;2.33;;;4.30;99.90;;;;;;4978027;28;20050;-80
2022/01/20 12:38:27;;;;;;;9.88;2.10;;;4.60;99.90;;;;;;4994301;28;20492;-80
2022/01/20 12:41:14;;;;;;;14.77;3.85;;;4.60;99.90;;;;;;4980163;28;20045;-80
2022/01/20 12:43:45;;;;;;;13.70;2.92;;;4.50;99.90;;;;;;4990658;28;20120;-79
2022/01/20 12:46:17;;;;;;;12.40;2.25;;;4.40;99.90;;;;;;4971835;28;20042;-80
2022/01/20 12:49:08;;;;;;;14.75;2.63;;;4.20;99.90;;;;;;4978373;28;20421;-80
2022/01/20 12:51:38;;;;;;;14.68;2.78;;;4.20;99.90;;;;;;4994834;28;20045;-80
2022/01/20 12:54:27;;;;;;;11.55;2.38;;;4.30;99.90;;;;;;4997774;28;20564;-80
2022/01/20 12:56:55;;;;;;;17.08;3.33;;;4.40;99.90;;;;;;4995983;28;20088;-80
2022/01/20 12:59:32;;;;;;;12.73;2.33;;;4.30;99.90;;;;;;4989686;28;20049;-80
2022/01/20 13:02:08;;;;;;;15.23;2.70;;;4.30;99.90;;;;;;5011159;28;20041;-80
2022/01/20 13:04:37;;;;;;;15.07;2.80;;;4.30;99.90;;;;;;5014635;28;20053;-80
2022/01/20 13:07:05;;;;;;;14.75;3.13;;;4.30;99.90;;;;;;4972657;28;20045;-79
2022/01/20 13:09:38;;;;;;;13.48;2.65;;;4.30;99.90;;;;;;4995919;28;20053;-80
2022/01/20 13:12:04;;;;;;;16.95;4.10;;;4.40;99.90;;;;;;4997658;28;20140;-80
2022/01/20 13:14:41;;;;;;;8.93;2.20;;;4.60;99.90;;;;;;4994142;28;20200;-80
2022/01/20 13:17:09;;;;;;;15.93;2.55;;;4.70;99.90;;;;;;4998823;28;21736;-80
2022/01/20 13:19:47;;;;;;;14.88;3.17;;;4.80;99.90;;;;;;5016098;28;20049;-80
2022/01/20 13:22:27;;;;;;;7.97;2.05;;;4.50;99.90;;;;;;4993151;28;20084;-80
2022/01/20 13:24:53;;;;;;;13.82;2.30;;;4.40;99.90;;;;;;4989783;28;20602;-80
2022/01/20 13:27:20;;;;;;;8.05;1.65;;;4.00;99.90;;;;;;4987651;28;20063;-80
2022/01/20 13:29:51;;;;;;;3.95;1.20;;;3.90;99.90;;;;;;5013009;28;20088;-80
2022/01/20 13:32:18;;;;;;;7.03;1.77;;;4.00;99.90;;;;;;4994338;28;20065;-80
2022/01/20 13:34:55;;;;;;;5.95;1.02;;;3.90;99.90;;;;;;4997447;28;20125;-80
2022/01/20 13:37:21;;;;;;;8.73;1.88;;;4.10;99.90;;;;;;4988525;28;20045;-80
2022/01/20 13:39:49;;;;;;;5.30;1.30;;;4.10;99.90;;;;;;4982262;28;20041;-79
2022/01/20 13:45:17;;;;;;;11.52;2.13;;;4.30;99.90;;;;;;4928656;28;20151;-80
2022/01/20 13:47:59;;;;;;;9.10;1.70;;;4.20;99.90;;;;;;4997561;28;20045;-80
2022/01/20 13:50:25;;;;;;;9.10;2.10;;;3.80;99.90;;;;;;4996039;28;20038;-80
2022/01/20 13:52:52;;;;;;;11.68;2.83;;;3.90;99.90;;;;;;4994678;28;20381;-80
2022/01/20 13:55:28;;;;;;;10.40;2.10;;;3.90;99.90;;;;;;4995349;28;20049;-80
2022/01/20 13:57:55;;;;;;;8.02;1.88;;;4.10;99.90;;;;;;4980928;28;20056;-80
2022/01/20 14:00:30;;;;;;;12.95;1.95;;;4.10;99.90;;;;;;4996882;28;20081;-80
2022/01/20 14:02:55;;;;;;;9.23;2.00;;;4.10;99.90;;;;;;4998120;28;20495;-80
2022/01/20 14:05:33;;;;;;;10.30;1.90;;;4.00;99.90;;;;;;4996990;28;20108;-80
2022/01/20 14:08:00;;;;;;;8.05;2.08;;;4.00;99.90;;;;;;4995874;28;20068;-80
2022/01/20 14:10:27;;;;;;;10.07;2.20;;;3.90;99.90;;;;;;4999883;28;20033;-80
2022/01/20 14:12:53;;;;;;;12.43;2.45;;;4.00;99.90;;;;;;4997613;28;20053;-80
2022/01/20 14:15:20;;;;;;;12.02;2.08;;;3.90;99.90;;;;;;5010192;28;20040;-80